GMAG

Goulimime

Goulimime, Morocco
METAR GMAG 161800Z 36016KT 8000 SCT016 21/14 Q1014 NOSIG
Observed Flight Rules
Oct-16 @ 18:00 UTC (10 hours ago) Marginal Visual Flight Rules
Wind Visibility Clouds
360° at 16 knots 7,998 meters
  • Scattered at 1,600' AGL
Temperatures Readings
Current 21°C / 70°F
Dewpoint 14°C / 57°F
Humidity 64%
Altimeter 29.94" Hg
Pressure 1014 hPa
Elevation 333
METAR GMAG 161800Z 36016KT 8000 SCT016 21/14 Q1014 NOSIG
Observed Flight Rules
Oct-16 @ 18:00 UTC
(10 hours ago)
MVFR
Wind Visibility
360° at 16 knots 7,998 meters
Clouds
  • Scattered at 1,600' AGL
Temperature Dewpoint
21°C / 70°F 14°C / 57°F
Humidity Altimeter Pressure
64% 29.94" Hg 1014 hPa